John C. Munro Hamilton International Airport
CYHM : now visible

Airfield :











YOU CAN JOIN US ON...

 
LOGIN :

Register | Disclaimer

   EN    FR    IT 

 









Legend :    VFR   Marginal VFR   IFR   Intensive IFR   Very Intensive IFR
Visi :
Ceiling :
>= 8 km
>= 3000ft
5 to 8 km
1000 to 3000 ft
1500m to 5 km
500 to 1000 ft
800 to 1500m
200 to 500 ft
< 800m
< 200 ft
Symbols :   Thunderstorms  Fog  Heavy snow  Heavy precipitations  Wind > 20 kt






- Airport Elevation : 780 ft
- IATA code : YHM


CYHM - John C. Munro Hamilton International

CURRENT METAR :
  • 220300Z 00000KT 15SM MIFG FEW130 FEW250 08/06 A3023 RMK AC1CI2 AC TR SLP242

EXPIRED METARs :
  • 220200Z 27004KT 15SM FEW140 SCT250 07/06 A3024 RMK AC1CI4 AC TR SLP245
  • 220100Z 23003KT 15SM FEW250 08/06 A3022 RMK CI1 SLP238

TAF TAF CYHM
Valid from the 22 at 00:00 until the 23 at 00:00 UTC


212338Z 2200/2224 26006KT P6SM FEW170 BKN250
FM220800 34006KT P6SM OVC050
FM221300 04008KT 4SM -SHRA BR BKN010 OVC030
FM221500 04010KT 2SM -RA BR BKN005 OVC012
FM222000 05010KT 4SM -DZ BR OVC005 RMK NXT FCST BY 220600Z
CZYZ FIR / North America



MET'MAP, your aeronautical weather chart ! - Copyright ORBIFLY December 2007 - Disclaimer

ORBIFLY MET'MAP TEAM :

Programming & Development : Alexandra Zaïnal
Concept & original design : Baudouin d'Aumeries
Assistance for programming : Marc-Olivier Méhu
Technical & hardware support : Manuel Goepfert

Contact : metmap@orbifly.com




SOURCES & CREDITS :

   NOAA       Earth
Advisory